Time;durP1;ratioP1;P1;durP2;ratioP2;P2;SDS_P1;SDS_P2;PMS_P1;PMS_P2;Temp;Humidity;BMP_temperature;BMP_pressure;BME280_temperature;BME280_humidity;BME280_pressure;Samples;Min_cycle;Max_cycle;Signal;HPM_P1;HPM_P2
2023/02/24 00:01:58;;;;;;;16.10;11.00;;;;;;;-3.01;68.91;100047.54;106295;1253;60301;-87
2023/02/24 00:04:28;;;;;;;18.30;10.80;;;;;;;-3.04;69.22;100043.02;107692;1252;61059;-81
2023/02/24 00:06:56;;;;;;;16.50;11.30;;;;;;;-3.07;69.39;100040.55;109286;1254;73317;-74
2023/02/24 00:09:26;;;;;;;17.40;10.80;;;;;;;-3.07;69.45;100031.74;108881;1253;69858;-77
2023/02/24 00:12:02;;;;;;;17.70;10.50;;;;;;;-3.07;69.68;100031.39;108637;1252;72498;-76
2023/02/24 00:14:36;;;;;;;15.10;10.20;;;;;;;-2.95;69.67;100030.98;108806;1253;60971;-77
2023/02/24 00:17:08;;;;;;;15.30;10.30;;;;;;;-2.86;69.44;100021.89;107597;1253;60391;-73
2023/02/24 00:19:36;;;;;;;14.20;10.00;;;;;;;-2.88;69.40;100021.62;107907;1253;72968;-73
2023/02/24 00:22:07;;;;;;;15.30;9.10;;;;;;;-2.90;69.55;100016.86;107730;1253;70287;-74
2023/02/24 00:24:36;;;;;;;15.20;9.60;;;;;;;-2.91;69.48;100008.63;106832;1253;73017;-74
2023/02/24 00:27:10;;;;;;;16.20;10.20;;;;;;;-2.94;69.72;100022.27;108491;1256;60537;-72
2023/02/24 00:29:40;;;;;;;18.20;11.10;;;;;;;-2.97;69.89;100006.10;106626;1253;60351;-74
2023/02/24 00:32:11;;;;;;;17.10;10.60;;;;;;;-3.00;70.10;100003.11;106449;1253;73768;-72
2023/02/24 00:34:40;;;;;;;17.40;10.60;;;;;;;-2.94;70.28;99995.55;106608;1253;70571;-75
2023/02/24 00:37:09;;;;;;;14.60;10.00;;;;;;;-2.85;69.95;99988.17;106789;1256;71186;-73
2023/02/24 00:39:40;;;;;;;16.60;10.30;;;;;;;-2.88;70.04;99981.75;106405;1258;60422;-74
2023/02/24 00:42:10;;;;;;;16.90;10.90;;;;;;;-2.92;70.16;99977.60;107282;1253;60510;-74
2023/02/24 00:44:44;;;;;;;16.70;10.60;;;;;;;-2.94;70.14;99978.42;107868;1254;73906;-74
2023/02/24 00:47:15;;;;;;;17.20;11.20;;;;;;;-2.95;70.29;99965.12;108672;1253;70096;-73
2023/02/24 00:49:44;;;;;;;17.50;11.40;;;;;;;-2.95;70.33;99953.53;109232;1253;71814;-74
2023/02/24 00:52:15;;;;;;;15.50;11.10;;;;;;;-2.94;70.29;99954.86;108995;1254;60386;-75
2023/02/24 00:54:46;;;;;;;18.20;11.80;;;;;;;-2.81;70.28;99943.77;107675;1253;60354;-74
2023/02/24 00:57:16;;;;;;;16.70;11.00;;;;;;;-2.69;69.92;99939.36;107565;1253;73530;-74
2023/02/24 00:59:51;;;;;;;16.30;9.70;;;;;;;-2.69;69.71;99929.16;107550;1254;69439;-74
2023/02/24 01:02:20;;;;;;;17.60;10.40;;;;;;;-2.70;69.73;99923.83;108183;1252;72533;-72
2023/02/24 01:04:50;;;;;;;15.30;10.80;;;;;;;-2.71;69.73;99915.02;108761;1252;58123;-72
2023/02/24 01:07:20;;;;;;;17.60;10.30;;;;;;;-2.71;69.75;99915.02;108719;1253;59154;-73
2023/02/24 01:09:48;;;;;;;18.90;11.90;;;;;;;-2.72;69.72;99907.08;109027;1252;73721;-75
2023/02/24 01:12:37;;;;;;;18.70;11.70;;;;;;;-2.72;69.77;99903.11;108792;1257;69453;-73
2023/02/24 01:15:08;;;;;;;15.10;9.90;;;;;;;-2.74;70.13;99903.91;108125;1256;72049;-81
2023/02/24 01:17:42;;;;;;;13.40;9.70;;;;;;;-2.64;70.00;99895.91;107738;1253;61903;-72
2023/02/24 01:20:17;;;;;;;17.90;10.10;;;;;;;-2.56;69.78;99896.02;108285;1255;60331;-70
2023/02/24 01:22:49;;;;;;;17.10;10.50;;;;;;;-2.58;69.84;99890.41;108428;1257;72360;-73
2023/02/24 01:25:19;;;;;;;17.50;10.10;;;;;;;-2.61;69.89;99879.47;108733;1253;69422;-76
2023/02/24 01:27:48;;;;;;;17.60;10.60;;;;;;;-2.63;70.15;99876.83;106758;1260;70877;-71
2023/02/24 01:30:17;;;;;;;19.20;11.80;;;;;;;-2.68;70.24;99872.21;105928;1252;60428;-71
2023/02/24 01:32:45;;;;;;;16.30;11.20;;;;;;;-2.70;70.50;99876.98;105674;1254;60416;-72
2023/02/24 01:35:21;;;;;;;15.80;10.90;;;;;;;-2.72;70.56;99857.67;105849;1254;73171;-70
2023/02/24 01:37:50;;;;;;;13.90;9.60;;;;;;;-2.64;70.66;99850.66;106058;1260;70567;-72
2023/02/24 01:40:19;;;;;;;17.40;11.20;;;;;;;-2.59;70.59;99847.97;106529;1257;73659;-75
2023/02/24 01:42:51;;;;;;;17.40;12.40;;;;;;;-2.62;70.64;99850.21;106704;1256;60771;-83
2023/02/24 01:45:21;;;;;;;18.10;10.90;;;;;;;-2.65;71.01;99851.42;106877;1259;60447;-77
2023/02/24 01:47:51;;;;;;;15.40;10.80;;;;;;;-2.67;71.17;99849.28;107081;1254;72609;-78
2023/02/24 01:50:21;;;;;;;19.20;11.40;;;;;;;-2.68;71.36;99843.63;106904;1258;73248;-77
2023/02/24 01:52:54;;;;;;;16.40;10.50;;;;;;;-2.68;71.56;99830.58;106552;1258;73707;-81
2023/02/24 01:55:30;;;;;;;17.60;10.10;;;;;;;-2.54;71.27;99825.17;106874;1258;60309;-76
2023/02/24 01:58:00;;;;;;;15.90;10.50;;;;;;;-2.50;71.12;99842.31;106317;1259;60549;-77
2023/02/24 02:00:36;;;;;;;20.20;11.20;;;;;;;-2.55;71.38;99824.35;106025;1260;74669;-74
2023/02/24 02:03:17;;;;;;;16.00;11.20;;;;;;;-2.58;71.48;99821.06;106337;1253;69677;-74
2023/02/24 02:05:47;;;;;;;17.40;11.50;;;;;;;-2.63;71.68;99819.39;105996;1258;74006;-74
2023/02/24 02:08:17;;;;;;;16.70;10.60;;;;;;;-2.66;71.91;99816.95;106060;1253;60405;-73
2023/02/24 02:10:45;;;;;;;17.70;10.60;;;;;;;-2.60;71.88;99812.13;106076;1256;61412;-77
2023/02/24 02:13:19;;;;;;;14.20;10.00;;;;;;;-2.49;71.87;99820.92;106030;1265;74068;-71
2023/02/24 02:16:15;;;;;;;16.80;10.80;;;;;;;-2.50;71.92;99811.97;106286;1257;70305;-77
2023/02/24 02:19:08;;;;;;;18.60;11.50;;;;;;;-2.57;72.11;99808.13;105938;1260;70745;-73
2023/02/24 02:22:16;;;;;;;16.80;11.00;;;;;;;-2.61;72.43;99796.94;107588;1254;60595;-71
2023/02/24 02:25:08;;;;;;;15.00;10.10;;;;;;;-2.64;72.57;99792.57;107832;1258;60418;-74
2023/02/24 02:27:59;;;;;;;15.20;10.10;;;;;;;-2.53;72.52;99794.61;106348;1261;74027;-72
2023/02/24 02:30:51;;;;;;;18.10;11.40;;;;;;;-2.44;72.17;99784.77;106533;1257;70726;-76
2023/02/24 02:33:55;;;;;;;15.50;10.40;;;;;;;-2.49;72.26;99788.65;106570;1254;73526;-77
2023/02/24 02:36:28;;;;;;;19.60;11.90;;;;;;;-2.52;72.43;99786.60;106389;1255;60528;-74
2023/02/24 02:39:05;;;;;;;19.60;12.10;;;;;;;-2.55;72.50;99776.88;106566;1260;59217;-70
2023/02/24 02:41:47;;;;;;;15.30;10.90;;;;;;;-2.59;72.71;99787.10;107563;1258;74074;-79
2023/02/24 02:44:39;;;;;;;16.20;11.00;;;;;;;-2.53;72.83;99771.55;106679;1260;70341;-81
2023/02/24 02:47:23;;;;;;;16.70;10.70;;;;;;;-2.42;72.46;99762.04;106228;1257;70631;-79
2023/02/24 02:49:59;;;;;;;17.30;10.50;;;;;;;-2.41;72.49;99769.85;106248;1255;60518;-77
2023/02/24 02:52:41;;;;;;;17.50;12.20;;;;;;;-2.44;72.60;99744.85;106616;1253;60986;-77
2023/02/24 02:55:45;;;;;;;18.70;12.10;;;;;;;-2.46;72.81;99737.98;106493;1257;73833;-79
2023/02/24 02:58:15;;;;;;;;;;;;;;;-2.46;72.69;99743.09;106446;1259;70327;-73
2023/02/24 03:00:57;;;;;;;18.80;11.40;;;;;;;-2.46;72.83;99735.23;106418;1259;73883;-81
2023/02/24 03:03:53;;;;;;;16.50;11.00;;;;;;;-2.35;72.72;99728.19;106439;1254;60398;-77
2023/02/24 03:06:36;;;;;;;18.70;11.90;;;;;;;-2.35;72.59;99720.94;106146;1256;61337;-77
2023/02/24 03:09:14;;;;;;;18.60;11.40;;;;;;;-2.40;72.69;99719.14;106222;1259;74875;-79
2023/02/24 03:11:47;;;;;;;17.20;11.50;;;;;;;-2.44;73.00;99717.46;106202;1258;69138;-76
2023/02/24 03:14:15;;;;;;;16.60;11.30;;;;;;;-2.48;73.29;99715.42;106194;1256;73020;-73
2023/02/24 03:16:45;;;;;;;17.10;11.40;;;;;;;-2.48;73.29;99708.31;105758;1259;60496;-77
2023/02/24 03:19:15;;;;;;;17.20;11.10;;;;;;;-2.38;73.06;99714.33;106577;1258;61164;-79
2023/02/24 03:21:45;;;;;;;19.90;12.10;;;;;;;-2.35;72.87;99713.48;106493;1269;74847;-77
2023/02/24 03:24:14;;;;;;;19.90;11.50;;;;;;;-2.39;73.01;99694.10;107987;1253;70199;-73
2023/02/24 03:26:52;;;;;;;20.80;12.30;;;;;;;-2.43;73.08;99693.98;107468;1253;73913;-75
2023/02/24 03:29:37;;;;;;;18.10;11.30;;;;;;;-2.45;73.41;99682.45;106221;1256;61106;-72
2023/02/24 03:32:12;;;;;;;17.30;10.90;;;;;;;-2.34;73.22;99682.34;106969;1254;61316;-76
2023/02/24 03:35:02;;;;;;;16.80;10.80;;;;;;;-2.29;73.11;99671.66;106118;1258;72993;-72
2023/02/24 03:37:32;;;;;;;20.50;12.00;;;;;;;-2.31;73.05;99668.66;106157;1257;70964;-75
2023/02/24 03:40:13;;;;;;;17.20;11.20;;;;;;;-2.35;73.06;99656.92;106303;1255;73470;-74
2023/02/24 03:42:45;;;;;;;20.00;11.70;;;;;;;-2.38;73.22;99669.92;106183;1253;60460;-77
2023/02/24 03:45:15;;;;;;;17.70;11.40;;;;;;;-2.34;73.52;99665.19;106158;1254;61135;-75
2023/02/24 03:47:45;;;;;;;20.80;12.40;;;;;;;-2.25;73.29;99660.66;106315;1256;73909;-72
2023/02/24 03:50:18;;;;;;;18.40;12.50;;;;;;;-2.25;73.12;99650.46;106381;1255;70829;-75
2023/02/24 03:53:15;;;;;;;19.40;13.00;;;;;;;-2.26;73.14;99650.51;106341;1251;71422;-73
2023/02/24 03:55:57;;;;;;;20.90;11.10;;;;;;;-2.28;73.29;99644.88;106325;1251;60520;-72
2023/02/24 03:58:26;;;;;;;17.70;12.00;;;;;;;-2.22;73.35;99640.38;106291;1257;60660;-74
2023/02/24 04:00:55;;;;;;;17.90;11.10;;;;;;;-2.11;73.04;99639.04;106200;1255;74708;-73
2023/02/24 04:03:48;;;;;;;17.00;11.60;;;;;;;-2.11;72.96;99638.84;106314;1254;71538;-75
2023/02/24 04:06:43;;;;;;;19.60;12.90;;;;;;;-2.15;73.13;99637.38;106373;1253;72322;-71
2023/02/24 04:09:15;;;;;;;18.50;12.00;;;;;;;-2.18;73.11;99622.60;106210;1254;60553;-72
2023/02/24 04:12:02;;;;;;;18.70;11.90;;;;;;;-2.19;73.23;99626.80;106181;1253;61256;-77
2023/02/24 04:14:49;;;;;;;17.60;11.60;;;;;;;-2.14;73.40;99622.02;108215;1253;72797;-77
2023/02/24 04:17:25;;;;;;;19.90;12.40;;;;;;;-2.05;73.19;99611.47;107853;1257;69132;-80
2023/02/24 04:19:59;;;;;;;19.70;13.50;;;;;;;-2.07;73.13;99613.45;107196;1254;72699;-81
2023/02/24 04:22:28;;;;;;;19.90;13.10;;;;;;;-2.09;73.30;99610.96;107271;1253;60295;-82
2023/02/24 04:24:58;;;;;;;18.10;12.10;;;;;;;-2.11;73.46;99604.86;107889;1251;60520;-74
2023/02/24 04:27:29;;;;;;;19.70;12.20;;;;;;;-2.04;73.45;99602.67;107712;1260;72069;-74
2023/02/24 04:30:09;;;;;;;17.80;12.10;;;;;;;-1.87;73.09;99601.86;107688;1255;70459;-74
2023/02/24 04:32:42;;;;;;;17.60;12.10;;;;;;;-1.86;72.88;99609.10;106109;1257;70778;-72
2023/02/24 04:35:18;;;;;;;19.20;12.40;;;;;;;-1.90;73.07;99598.08;106380;1251;60507;-75
2023/02/24 04:37:49;;;;;;;19.50;12.60;;;;;;;-1.94;73.14;99592.42;106551;1252;60432;-72
2023/02/24 04:40:21;;;;;;;17.00;11.70;;;;;;;-1.98;73.29;99594.16;106303;1252;74810;-77
2023/02/24 04:42:51;;;;;;;17.50;11.80;;;;;;;-1.94;73.43;99595.67;106201;1257;69164;-73
2023/02/24 04:45:24;;;;;;;20.20;12.60;;;;;;;-1.84;73.19;99577.91;105989;1258;72119;-72
2023/02/24 04:47:59;;;;;;;16.40;12.20;;;;;;;-1.84;73.10;99582.41;105966;1259;60416;-73
2023/02/24 04:50:33;;;;;;;20.10;13.00;;;;;;;-1.88;73.34;99577.98;106091;1258;60798;-75
2023/02/24 04:53:05;;;;;;;19.60;13.30;;;;;;;-1.92;73.56;99575.64;105909;1254;73951;-70
2023/02/24 04:55:38;;;;;;;18.50;11.70;;;;;;;-1.94;73.75;99569.52;105923;1256;71315;-69
2023/02/24 04:58:11;;;;;;;18.20;12.10;;;;;;;-1.82;73.56;99570.83;106004;1255;71676;-70
2023/02/24 05:00:40;;;;;;;22.80;14.50;;;;;;;-1.77;73.41;99584.44;105860;1251;60414;-71
2023/02/24 05:03:11;;;;;;;19.10;13.00;;;;;;;-1.82;73.43;99569.41;105862;1254;61203;-75
2023/02/24 05:05:46;;;;;;;24.60;14.90;;;;;;;-1.86;73.71;99575.40;105962;1257;73579;-75
2023/02/24 05:08:15;;;;;;;20.00;13.40;;;;;;;-1.89;73.77;99567.08;106273;1258;71420;-73
2023/02/24 05:10:45;;;;;;;20.30;12.30;;;;;;;-1.87;73.85;99573.42;105921;1251;72468;-74
2023/02/24 05:13:25;;;;;;;19.20;12.40;;;;;;;-1.76;73.83;99565.08;106122;1251;60486;-76
2023/02/24 05:15:55;;;;;;;21.80;13.10;;;;;;;-1.74;73.79;99557.50;106031;1257;60549;-75
2023/02/24 05:18:31;;;;;;;18.30;11.80;;;;;;;-1.78;73.74;99564.15;106107;1251;73135;-73
2023/02/24 05:23:51;;;;;;;20.10;12.00;;;;;;;-1.83;74.20;99555.59;106055;1254;73721;-71
2023/02/24 05:26:42;;;;;;;17.60;10.90;;;;;;;-1.70;74.10;99553.47;106835;1253;63575;-74
2023/02/24 05:29:13;;;;;;;20.30;12.00;;;;;;;-1.64;73.89;99541.45;107514;1254;60415;-74
2023/02/24 05:31:43;;;;;;;21.90;13.00;;;;;;;-1.66;73.97;99550.77;107335;1252;73770;-72
2023/02/24 05:34:16;;;;;;;21.50;13.40;;;;;;;-1.68;74.18;99538.57;106463;1254;69579;-74
2023/02/24 05:36:45;;;;;;;;;;;;;;;-1.69;74.20;99533.77;106024;1257;72969;-77
2023/02/24 05:39:18;;;;;;;21.90;12.70;;;;;;;-1.67;74.43;99528.10;106103;1254;61622;-72
2023/02/24 05:41:47;;;;;;;18.50;11.20;;;;;;;-1.56;74.35;99526.30;105899;1254;60541;-72
2023/02/24 05:44:22;;;;;;;19.60;11.70;;;;;;;-1.52;74.34;99523.66;105844;1254;72890;-74
2023/02/24 05:46:55;;;;;;;19.80;12.10;;;;;;;-1.55;74.64;99530.25;106290;1254;70482;-76
2023/02/24 05:49:28;;;;;;;20.30;11.90;;;;;;;-1.56;74.86;99518.56;106162;1254;71285;-71
2023/02/24 05:51:59;;;;;;;17.00;11.40;;;;;;;-1.54;74.94;99506.23;106576;1254;61365;-72
2023/02/24 05:54:34;;;;;;;18.20;10.50;;;;;;;-1.43;74.92;99542.35;106001;1252;61499;-73
2023/02/24 05:57:07;;;;;;;;;;;;;;;-1.40;74.64;99513.84;106240;1254;72630;-77
2023/02/24 05:59:35;;;;;;;18.50;12.40;;;;;;;-1.42;74.77;99506.16;106243;1254;71565;-78
2023/02/24 06:02:11;;;;;;;20.20;13.20;;;;;;;-1.45;74.99;99499.56;106155;1257;72913;-71
2023/02/24 06:04:55;;;;;;;22.30;13.10;;;;;;;-1.41;75.06;99504.02;105661;1253;61273;-68
2023/02/24 06:07:28;;;;;;;17.10;12.00;;;;;;;-1.25;74.93;99525.09;106068;1254;60533;-72
2023/02/24 06:09:57;;;;;;;18.10;12.50;;;;;;;-1.23;74.83;99506.73;106052;1253;74111;-68
2023/02/24 06:12:28;;;;;;;19.60;11.50;;;;;;;-1.27;75.00;99500.73;105951;1254;71498;-72
2023/02/24 06:15:06;;;;;;;18.80;11.80;;;;;;;-1.31;75.42;99496.78;105832;1254;72499;-69
2023/02/24 06:17:38;;;;;;;21.20;12.70;;;;;;;-1.26;75.69;99505.36;105869;1254;61174;-67
2023/02/24 06:20:14;;;;;;;28.20;13.00;;;;;;;-1.18;75.72;99498.92;106051;1259;60413;-66
2023/02/24 06:22:43;;;;;;;21.90;12.90;;;;;;;-1.23;75.85;99491.58;105891;1255;73746;-67
2023/02/24 06:25:14;;;;;;;18.70;11.50;;;;;;;-1.24;75.91;99474.63;105890;1257;68378;-66
2023/02/24 06:27:44;;;;;;;19.30;11.40;;;;;;;-1.13;75.69;99489.03;106025;1251;71435;-72
2023/02/24 06:30:14;;;;;;;23.70;12.10;;;;;;;-1.08;75.73;99479.67;106459;1251;60556;-68
2023/02/24 06:32:43;;;;;;;22.00;12.40;;;;;;;-1.11;75.89;99492.39;106060;1256;60480;-70
2023/02/24 06:35:12;;;;;;;21.50;12.20;;;;;;;-1.13;76.11;99478.42;106030;1252;73271;-69
2023/02/24 06:37:40;;;;;;;17.00;11.60;;;;;;;-1.05;76.17;99480.31;105832;1251;70397;-67
2023/02/24 06:40:19;;;;;;;23.30;12.00;;;;;;;-1.02;76.12;99468.17;105950;1251;72596;-68
2023/02/24 06:42:48;;;;;;;20.70;12.80;;;;;;;-1.05;76.32;99454.62;105951;1253;60469;-67
2023/02/24 06:45:17;;;;;;;19.80;12.20;;;;;;;-1.06;76.52;99445.46;106592;1251;61024;-66
2023/02/24 06:47:49;;;;;;;22.30;12.80;;;;;;;-0.94;76.51;99446.95;106157;1251;71268;-66
2023/02/24 06:50:19;;;;;;;20.90;12.20;;;;;;;-0.90;76.41;99439.04;105772;1258;70252;-67
2023/02/24 06:52:48;;;;;;;23.50;13.00;;;;;;;-0.94;76.73;99453.89;105628;1254;74793;-71
2023/02/24 06:55:26;;;;;;;20.80;12.00;;;;;;;-0.94;77.20;99447.31;106092;1251;62042;-66
2023/02/24 06:58:03;;;;;;;21.80;12.60;;;;;;;-0.83;76.89;99440.11;106006;1255;60720;-70
2023/02/24 07:00:37;;;;;;;21.40;13.40;;;;;;;-0.80;76.81;99429.29;106113;1256;73894;-68
2023/02/24 07:03:15;;;;;;;;;;;;;;;-0.84;77.22;99432.52;106077;1256;69438;-68
2023/02/24 07:06:09;;;;;;;21.60;12.70;;;;;;;-0.81;77.31;99430.59;106085;1257;72917;-67
2023/02/24 07:08:38;;;;;;;22.40;13.50;;;;;;;-0.73;77.31;99447.09;106362;1253;60736;-63
2023/02/24 07:11:06;;;;;;;20.70;11.80;;;;;;;-0.76;77.45;99425.20;108779;1252;61524;-67
2023/02/24 07:13:36;;;;;;;24.20;11.20;;;;;;;-0.76;77.50;99417.70;108988;1252;72578;-71
2023/02/24 07:16:05;;;;;;;17.50;10.50;;;;;;;-0.61;77.25;99412.21;108687;1253;69971;-68
2023/02/24 07:18:40;;;;;;;19.90;11.40;;;;;;;-0.56;77.04;99417.08;108040;1256;72192;-70
2023/02/24 07:21:15;;;;;;;20.20;12.10;;;;;;;-0.58;77.19;99407.12;107818;1252;60724;-68
2023/02/24 07:23:44;;;;;;;21.20;12.40;;;;;;;-0.58;77.35;99428.71;108008;1253;60341;-69
2023/02/24 07:26:13;;;;;;;21.10;11.70;;;;;;;-0.44;77.11;99396.58;108727;1253;73160;-70
2023/02/24 07:28:42;;;;;;;21.90;13.40;;;;;;;-0.40;76.85;99387.41;108699;1253;69201;-69
2023/02/24 07:31:12;;;;;;;21.70;13.80;;;;;;;-0.40;76.81;99401.86;108511;1253;71140;-69
2023/02/24 07:33:46;;;;;;;18.80;10.50;;;;;;;-0.42;77.28;99392.65;108143;1255;60367;-67
2023/02/24 07:36:21;;;;;;;23.50;13.10;;;;;;;-0.31;76.93;99385.27;107711;1253;436181;-67
2023/02/24 07:41:29;;;;;;;20.10;11.70;;;;;;;-0.29;76.91;99384.41;105036;1291;600561;-69
2023/02/24 07:44:02;;;;;;;19.80;12.50;;;;;;;-0.30;77.05;99368.33;107551;1267;60971;-69
2023/02/24 07:46:31;;;;;;;19.30;12.60;;;;;;;-0.17;76.74;99374.88;107255;1265;60300;-69
2023/02/24 07:49:01;;;;;;;21.40;12.80;;;;;;;-0.13;76.67;99359.08;108024;1257;71264;-67
2023/02/24 07:51:30;;;;;;;22.10;13.90;;;;;;;-0.14;76.63;99362.27;107043;1263;69448;-72
2023/02/24 07:53:59;;;;;;;20.20;12.00;;;;;;;-0.15;76.87;99363.45;106339;1261;188873;-70
2023/02/24 07:56:29;;;;;;;18.80;12.40;;;;;;;-0.09;76.70;99364.75;105813;1260;60421;-73
2023/02/24 07:59:01;;;;;;;21.00;12.50;;;;;;;-0.03;76.44;99357.68;105955;1255;59403;-69
2023/02/24 08:01:37;;;;;;;20.30;11.10;;;;;;;-0.08;76.50;99365.89;105773;1254;72118;-69
2023/02/24 08:04:07;;;;;;;24.80;12.50;;;;;;;-0.13;76.68;99368.83;105590;1254;70452;-68
2023/02/24 08:06:37;;;;;;;19.60;11.50;;;;;;;-0.05;76.68;99351.89;105639;1258;72043;-69
2023/02/24 08:09:16;;;;;;;18.40;12.20;;;;;;;0.01;76.24;99345.23;105748;1254;60398;-69
2023/02/24 08:11:53;;;;;;;20.40;11.00;;;;;;;-0.01;76.22;99344.64;105969;1253;61074;-70
2023/02/24 08:14:31;;;;;;;19.70;11.90;;;;;;;-0.03;76.42;99339.23;105617;1254;71942;-68
2023/02/24 08:17:04;;;;;;;19.50;11.90;;;;;;;-0.01;76.55;99350.59;105643;1254;69307;-68
2023/02/24 08:19:38;;;;;;;15.80;10.90;;;;;;;0.09;76.24;99340.80;105430;1253;73820;-68
2023/02/24 08:22:19;;;;;;;21.20;12.40;;;;;;;0.10;75.91;99333.41;105644;1254;59632;-72
2023/02/24 08:24:54;;;;;;;17.90;11.00;;;;;;;0.09;76.13;99331.77;105985;1254;61824;-68
2023/02/24 08:27:23;;;;;;;18.60;10.00;;;;;;;0.07;76.27;99330.48;105548;1255;73007;-69
2023/02/24 08:30:02;;;;;;;22.00;12.00;;;;;;;0.18;76.02;99317.73;105596;1257;68622;-67
2023/02/24 08:32:42;;;;;;;25.20;11.40;;;;;;;0.27;75.79;99320.36;105480;1261;74448;-65
2023/02/24 08:35:17;;;;;;;21.50;12.80;;;;;;;0.24;75.75;99324.77;105696;1257;59706;-67
2023/02/24 08:37:51;;;;;;;24.70;12.50;;;;;;;0.17;76.07;99320.37;105558;1259;59740;-65
2023/02/24 08:46:02;;;;;;;19.70;12.20;;;;;;;0.22;76.09;99313.55;105712;1259;72637;-69
2023/02/24 08:48:41;;;;;;;21.50;13.10;;;;;;;0.26;76.19;99301.99;105527;1253;60663;-68
2023/02/24 08:51:21;;;;;;;22.80;12.90;;;;;;;0.34;76.13;99309.91;105496;1258;59920;-68
2023/02/24 08:53:52;;;;;;;20.30;12.70;;;;;;;0.32;76.02;99299.11;105580;1257;72511;-67
2023/02/24 08:56:25;;;;;;;23.80;13.40;;;;;;;0.28;76.25;99300.73;105686;1257;68802;-68
2023/02/24 08:58:56;;;;;;;21.60;12.50;;;;;;;0.36;76.19;99300.52;105640;1258;72659;-68
2023/02/24 09:01:33;;;;;;;19.60;12.50;;;;;;;0.45;75.75;99288.54;105574;1254;59649;-68
2023/02/24 09:04:10;;;;;;;17.50;12.70;;;;;;;0.44;75.75;99290.48;105520;1254;59646;-68
2023/02/24 09:06:44;;;;;;;19.50;12.40;;;;;;;0.42;75.82;99293.82;105495;1260;72212;-67
2023/02/24 09:09:17;;;;;;;24.30;11.10;;;;;;;0.40;76.12;99279.08;105647;1254;70625;-67
2023/02/24 09:11:56;;;;;;;19.60;12.40;;;;;;;0.52;75.88;99278.05;105557;1254;72476;-67
2023/02/24 09:14:26;;;;;;;23.50;12.80;;;;;;;0.59;75.57;99273.86;105674;1254;60318;-64
2023/02/24 09:17:09;;;;;;;19.20;12.60;;;;;;;0.57;75.60;99273.65;105661;1253;59660;-68
2023/02/24 09:22:31;;;;;;;17.90;11.00;;;;;;;0.55;75.79;99279.20;105643;1256;70156;-67
2023/02/24 09:25:22;;;;;;;17.90;11.00;;;;;;;0.67;75.58;99266.15;105619;1254;73720;-67
2023/02/24 09:28:06;;;;;;;21.60;13.00;;;;;;;0.65;75.50;99255.83;105325;1260;59711;-64
2023/02/24 09:30:49;;;;;;;18.80;11.60;;;;;;;0.60;75.89;99265.23;105458;1259;59619;-66
2023/02/24 09:33:28;;;;;;;18.30;12.00;;;;;;;0.61;76.01;99239.73;105701;1256;72536;-66
2023/02/24 09:36:08;;;;;;;18.30;12.30;;;;;;;0.75;75.79;99244.38;105679;1254;71092;-66
2023/02/24 09:41:52;;;;;;;22.00;14.50;;;;;;;0.77;75.67;99234.17;105638;1254;60579;-66
2023/02/24 09:44:41;;;;;;;18.20;12.20;;;;;;;0.76;75.76;99238.05;105460;1259;59674;-67
2023/02/24 09:50:44;;;;;;;16.20;10.90;;;;;;;0.94;75.39;99237.41;105130;1259;71375;-67
2023/02/24 09:53:37;;;;;;;19.80;10.20;;;;;;;0.90;75.60;99235.08;105736;1256;71518;-66
2023/02/24 09:56:21;;;;;;;19.30;11.80;;;;;;;0.90;75.67;99232.48;105711;1254;62394;-67
2023/02/24 09:59:24;;;;;;;18.50;12.10;;;;;;;0.99;75.51;99231.46;105680;1254;59754;-68
2023/02/24 10:02:02;;;;;;;20.20;13.00;;;;;;;0.95;75.58;99226.30;105656;1254;73889;-66
2023/02/24 10:04:39;;;;;;;18.40;12.60;;;;;;;0.93;75.65;99199.42;105747;1253;69277;-64
2023/02/24 10:07:37;;;;;;;17.50;12.50;;;;;;;0.99;75.71;99218.16;105883;1254;72536;-71
2023/02/24 10:10:38;;;;;;;25.50;14.20;;;;;;;1.10;75.46;99196.77;106353;1256;59612;-73
2023/02/24 10:13:29;;;;;;;22.00;12.40;;;;;;;1.06;75.38;99192.16;105954;1254;59991;-71
2023/02/24 10:15:59;;;;;;;17.40;12.30;;;;;;;1.06;75.69;99182.75;105988;1257;70891;-71
2023/02/24 10:18:59;;;;;;;23.60;13.30;;;;;;;1.19;75.40;99185.92;105839;1254;70468;-71
2023/02/24 10:21:48;;;;;;;;;;;;;;;1.23;75.20;99167.12;105955;1257;73789;-73
2023/02/24 10:24:18;;;;;;;20.80;12.40;;;;;;;1.22;75.29;99170.99;105881;1258;59942;-69
2023/02/24 10:27:05;;;;;;;20.40;12.00;;;;;;;1.23;75.27;99172.65;105800;1253;59541;-71
2023/02/24 10:29:42;;;;;;;18.90;12.00;;;;;;;1.37;74.98;99163.50;106194;1253;71909;-74
2023/02/24 10:32:22;;;;;;;21.20;13.60;;;;;;;1.45;74.63;99158.52;106657;1253;71403;-73
2023/02/24 10:34:52;;;;;;;21.50;13.30;;;;;;;1.45;74.70;99161.90;107343;1254;73294;-75
2023/02/24 10:37:22;;;;;;;23.50;13.70;;;;;;;1.41;74.65;99165.70;108083;1255;59550;-75
2023/02/24 10:39:58;;;;;;;22.00;14.00;;;;;;;1.38;74.91;99148.09;106724;1258;61415;-71
2023/02/24 10:42:30;;;;;;;19.70;13.10;;;;;;;1.49;74.71;99133.74;106297;1253;74005;-72
2023/02/24 10:45:10;;;;;;;21.80;12.80;;;;;;;1.55;74.33;99138.66;106200;1253;70212;-72
2023/02/24 10:47:57;;;;;;;22.50;14.50;;;;;;;1.53;74.28;99142.52;105924;1256;73593;-72
2023/02/24 10:50:42;;;;;;;23.90;14.00;;;;;;;1.46;74.53;99137.46;106092;1253;60565;-74
2023/02/24 10:53:28;;;;;;;22.20;14.60;;;;;;;1.51;74.72;99121.23;106366;1252;61045;-71
2023/02/24 10:56:40;;;;;;;26.30;13.00;;;;;;;1.60;74.24;99140.36;106129;1253;74037;-73
2023/02/24 11:02:05;;;;;;;22.80;13.90;;;;;;;1.40;74.95;99112.51;106068;1259;72895;-73
2023/02/24 11:07:42;;;;;;;22.70;14.90;;;;;;;1.48;75.03;99119.69;105564;1259;60328;-71
2023/02/24 11:10:25;;;;;;;22.50;14.10;;;;;;;1.44;75.10;99119.34;105820;1254;73462;-70
2023/02/24 11:18:38;;;;;;;18.70;12.80;;;;;;;1.50;75.32;99081.73;105876;1253;61233;-72
2023/02/24 11:21:08;;;;;;;21.90;13.50;;;;;;;1.55;75.07;99097.30;106052;1254;61255;-71
2023/02/24 11:23:43;;;;;;;23.30;14.20;;;;;;;1.54;75.25;99082.36;105921;1253;74214;-72
2023/02/24 11:26:18;;;;;;;21.10;13.30;;;;;;;1.54;75.16;99085.75;105994;1260;71311;-72
2023/02/24 11:29:05;;;;;;;20.00;13.60;;;;;;;1.55;75.25;99083.39;105958;1253;71786;-71
2023/02/24 11:31:54;;;;;;;20.30;13.40;;;;;;;1.65;75.09;99094.98;106124;1256;61434;-70
2023/02/24 11:34:42;;;;;;;18.30;12.40;;;;;;;1.70;74.79;99085.45;106215;1253;60627;-69
2023/02/24 11:37:14;;;;;;;23.00;14.10;;;;;;;1.64;75.18;99088.58;106477;1253;73899;-73
2023/02/24 11:40:02;;;;;;;17.80;11.60;;;;;;;1.57;75.21;99087.70;106783;1259;69614;-70
2023/02/24 11:42:45;;;;;;;17.90;12.50;;;;;;;1.57;75.69;99089.00;105853;1253;74126;-72
2023/02/24 11:45:21;;;;;;;17.10;11.90;;;;;;;1.66;75.47;99074.29;106109;1256;59701;-69
2023/02/24 11:47:56;;;;;;;23.50;13.30;;;;;;;1.65;75.45;99075.41;105919;1251;59614;-70
2023/02/24 11:50:39;;;;;;;22.20;12.90;;;;;;;1.63;75.63;99073.77;106175;1257;74639;-70
2023/02/24 11:53:25;;;;;;;25.80;14.60;;;;;;;1.67;75.74;99056.68;105929;1259;69980;-68
2023/02/24 11:56:01;;;;;;;18.20;12.50;;;;;;;1.80;75.40;99071.77;106029;1253;72556;-71
2023/02/24 11:58:38;;;;;;;19.30;12.70;;;;;;;1.78;75.31;99080.60;105972;1251;60820;-72
2023/02/24 12:01:22;;;;;;;23.30;14.00;;;;;;;1.71;75.43;99057.39;106013;1258;61551;-69
2023/02/24 12:04:07;;;;;;;20.10;13.20;;;;;;;1.72;75.66;99059.23;106097;1259;74161;-69
2023/02/24 12:06:40;;;;;;;19.60;13.30;;;;;;;1.83;75.36;99056.46;106134;1255;70118;-71
2023/02/24 12:09:18;;;;;;;19.90;12.90;;;;;;;1.83;75.34;99071.34;105869;1256;71450;-71
2023/02/24 12:11:57;;;;;;;20.90;13.20;;;;;;;1.80;75.55;99053.06;106022;1253;60498;-70
2023/02/24 12:14:46;;;;;;;24.00;13.50;;;;;;;1.79;75.67;99053.95;106049;1253;60358;-70
2023/02/24 12:17:48;;;;;;;23.30;13.60;;;;;;;1.89;75.43;99043.33;105535;1258;74354;-69
2023/02/24 12:20:26;;;;;;;23.60;15.40;;;;;;;1.89;75.51;99031.86;105813;1253;71375;-70
2023/02/24 12:23:02;;;;;;;22.30;13.60;;;;;;;1.86;75.46;99036.06;105594;1254;71856;-71
2023/02/24 12:25:36;;;;;;;20.60;13.10;;;;;;;1.84;75.68;99027.73;105546;1253;60986;-71